sensor_id;sensor_type;location;lat;lon;timestamp;P1;durP1;ratioP1;P2;durP2;ratioP2
71435;SDS011;59251;51.326;12.370;2023-08-24T00:01:53;12.68;;;6.55;;
71435;SDS011;59251;51.326;12.370;2023-08-24T00:04:19;13.68;;;6.22;;
71435;SDS011;59251;51.326;12.370;2023-08-24T00:06:46;11.77;;;6.00;;
71435;SDS011;59251;51.326;12.370;2023-08-24T00:09:13;11.20;;;5.82;;
71435;SDS011;59251;51.326;12.370;2023-08-24T00:11:40;12.23;;;6.35;;
71435;SDS011;59251;51.326;12.370;2023-08-24T00:14:07;9.95;;;6.00;;
71435;SDS011;59251;51.326;12.370;2023-08-24T00:16:35;12.50;;;6.05;;
71435;SDS011;59251;51.326;12.370;2023-08-24T00:19:02;11.20;;;5.80;;
71435;SDS011;59251;51.326;12.370;2023-08-24T00:21:28;10.88;;;6.55;;
71435;SDS011;59251;51.326;12.370;2023-08-24T00:23:55;11.23;;;6.10;;
71435;SDS011;59251;51.326;12.370;2023-08-24T00:26:22;14.32;;;6.60;;
71435;SDS011;59251;51.326;12.370;2023-08-24T00:28:49;11.13;;;6.47;;
71435;SDS011;59251;51.326;12.370;2023-08-24T00:31:15;10.30;;;6.13;;
71435;SDS011;59251;51.326;12.370;2023-08-24T00:33:44;10.52;;;6.00;;
71435;SDS011;59251;51.326;12.370;2023-08-24T00:36:10;11.02;;;5.97;;
71435;SDS011;59251;51.326;12.370;2023-08-24T00:38:37;12.43;;;6.15;;
71435;SDS011;59251;51.326;12.370;2023-08-24T00:41:04;12.20;;;6.47;;
71435;SDS011;59251;51.326;12.370;2023-08-24T00:43:31;13.43;;;6.43;;
71435;SDS011;59251;51.326;12.370;2023-08-24T00:45:59;11.70;;;6.30;;
71435;SDS011;59251;51.326;12.370;2023-08-24T00:48:27;13.20;;;6.07;;
71435;SDS011;59251;51.326;12.370;2023-08-24T00:50:57;13.05;;;7.03;;
71435;SDS011;59251;51.326;12.370;2023-08-24T00:53:26;11.27;;;6.70;;
71435;SDS011;59251;51.326;12.370;2023-08-24T00:55:54;12.37;;;6.63;;
71435;SDS011;59251;51.326;12.370;2023-08-24T00:58:23;10.70;;;7.30;;
71435;SDS011;59251;51.326;12.370;2023-08-24T01:00:51;11.95;;;6.80;;
71435;SDS011;59251;51.326;12.370;2023-08-24T01:03:18;10.45;;;7.20;;
71435;SDS011;59251;51.326;12.370;2023-08-24T01:05:45;10.45;;;6.53;;
71435;SDS011;59251;51.326;12.370;2023-08-24T01:08:13;12.53;;;7.47;;
71435;SDS011;59251;51.326;12.370;2023-08-24T01:10:44;12.20;;;7.80;;
71435;SDS011;59251;51.326;12.370;2023-08-24T01:13:20;11.45;;;7.35;;
71435;SDS011;59251;51.326;12.370;2023-08-24T01:15:55;11.40;;;7.18;;
71435;SDS011;59251;51.326;12.370;2023-08-24T01:18:27;14.30;;;7.30;;
71435;SDS011;59251;51.326;12.370;2023-08-24T01:20:55;11.97;;;6.80;;
71435;SDS011;59251;51.326;12.370;2023-08-24T01:23:27;10.98;;;7.03;;
71435;SDS011;59251;51.326;12.370;2023-08-24T01:26:04;15.40;;;7.13;;
71435;SDS011;59251;51.326;12.370;2023-08-24T01:28:33;14.30;;;8.13;;
71435;SDS011;59251;51.326;12.370;2023-08-24T01:31:01;12.13;;;7.68;;
71435;SDS011;59251;51.326;12.370;2023-08-24T01:33:29;11.40;;;7.80;;
71435;SDS011;59251;51.326;12.370;2023-08-24T01:35:56;13.30;;;8.00;;
71435;SDS011;59251;51.326;12.370;2023-08-24T01:38:25;12.80;;;7.78;;
71435;SDS011;59251;51.326;12.370;2023-08-24T01:40:53;13.02;;;7.43;;
71435;SDS011;59251;51.326;12.370;2023-08-24T01:43:30;16.13;;;8.27;;
71435;SDS011;59251;51.326;12.370;2023-08-24T01:45:59;13.47;;;8.07;;
71435;SDS011;59251;51.326;12.370;2023-08-24T01:48:29;14.45;;;9.07;;
71435;SDS011;59251;51.326;12.370;2023-08-24T01:50:58;13.45;;;9.43;;
71435;SDS011;59251;51.326;12.370;2023-08-24T01:53:26;14.32;;;9.25;;
71435;SDS011;59251;51.326;12.370;2023-08-24T01:55:55;14.15;;;9.18;;
71435;SDS011;59251;51.326;12.370;2023-08-24T01:58:22;18.27;;;10.50;;
71435;SDS011;59251;51.326;12.370;2023-08-24T02:00:50;16.00;;;9.88;;
71435;SDS011;59251;51.326;12.370;2023-08-24T02:03:17;17.38;;;10.77;;
71435;SDS011;59251;51.326;12.370;2023-08-24T02:05:44;14.23;;;10.02;;
71435;SDS011;59251;51.326;12.370;2023-08-24T02:08:10;15.07;;;9.75;;
71435;SDS011;59251;51.326;12.370;2023-08-24T02:10:37;14.60;;;10.37;;
71435;SDS011;59251;51.326;12.370;2023-08-24T02:13:04;15.13;;;10.43;;
71435;SDS011;59251;51.326;12.370;2023-08-24T02:15:31;15.27;;;10.15;;
71435;SDS011;59251;51.326;12.370;2023-08-24T02:17:59;14.27;;;10.13;;
71435;SDS011;59251;51.326;12.370;2023-08-24T02:20:25;17.10;;;10.05;;
71435;SDS011;59251;51.326;12.370;2023-08-24T02:22:52;15.87;;;10.13;;
71435;SDS011;59251;51.326;12.370;2023-08-24T02:25:19;13.75;;;10.43;;
71435;SDS011;59251;51.326;12.370;2023-08-24T02:27:46;15.80;;;10.68;;
71435;SDS011;59251;51.326;12.370;2023-08-24T02:30:14;16.35;;;10.02;;
71435;SDS011;59251;51.326;12.370;2023-08-24T02:32:40;15.80;;;10.32;;
71435;SDS011;59251;51.326;12.370;2023-08-24T02:35:09;15.10;;;10.77;;
71435;SDS011;59251;51.326;12.370;2023-08-24T02:37:36;17.67;;;10.88;;
71435;SDS011;59251;51.326;12.370;2023-08-24T02:40:03;17.08;;;11.13;;
71435;SDS011;59251;51.326;12.370;2023-08-24T02:42:32;16.40;;;11.18;;
71435;SDS011;59251;51.326;12.370;2023-08-24T02:44:59;16.88;;;11.00;;
71435;SDS011;59251;51.326;12.370;2023-08-24T02:47:26;15.10;;;10.70;;
71435;SDS011;59251;51.326;12.370;2023-08-24T02:49:53;16.25;;;10.88;;
71435;SDS011;59251;51.326;12.370;2023-08-24T02:52:21;19.80;;;11.68;;
71435;SDS011;59251;51.326;12.370;2023-08-24T02:54:49;14.52;;;10.20;;
71435;SDS011;59251;51.326;12.370;2023-08-24T02:57:15;13.75;;;9.88;;
71435;SDS011;59251;51.326;12.370;2023-08-24T02:59:42;13.53;;;9.17;;
71435;SDS011;59251;51.326;12.370;2023-08-24T03:02:09;14.30;;;10.27;;
71435;SDS011;59251;51.326;12.370;2023-08-24T03:04:36;16.08;;;10.60;;
71435;SDS011;59251;51.326;12.370;2023-08-24T03:07:03;17.02;;;10.32;;
71435;SDS011;59251;51.326;12.370;2023-08-24T03:09:35;14.88;;;9.95;;
71435;SDS011;59251;51.326;12.370;2023-08-24T03:12:02;17.03;;;10.60;;
71435;SDS011;59251;51.326;12.370;2023-08-24T03:14:29;12.90;;;9.00;;
71435;SDS011;59251;51.326;12.370;2023-08-24T03:16:56;15.70;;;9.85;;
71435;SDS011;59251;51.326;12.370;2023-08-24T03:19:23;18.70;;;10.27;;
71435;SDS011;59251;51.326;12.370;2023-08-24T03:21:50;15.48;;;9.13;;
71435;SDS011;59251;51.326;12.370;2023-08-24T03:24:16;14.80;;;9.60;;
71435;SDS011;59251;51.326;12.370;2023-08-24T03:26:45;13.90;;;9.38;;
71435;SDS011;59251;51.326;12.370;2023-08-24T03:29:11;14.48;;;9.10;;
71435;SDS011;59251;51.326;12.370;2023-08-24T03:31:38;16.05;;;9.85;;
71435;SDS011;59251;51.326;12.370;2023-08-24T03:34:05;14.68;;;10.02;;
71435;SDS011;59251;51.326;12.370;2023-08-24T03:36:32;14.17;;;9.83;;
71435;SDS011;59251;51.326;12.370;2023-08-24T03:38:58;16.90;;;12.13;;
71435;SDS011;59251;51.326;12.370;2023-08-24T03:41:25;18.38;;;11.55;;
71435;SDS011;59251;51.326;12.370;2023-08-24T03:43:53;16.38;;;9.52;;
71435;SDS011;59251;51.326;12.370;2023-08-24T03:46:20;16.35;;;9.25;;
71435;SDS011;59251;51.326;12.370;2023-08-24T03:48:47;15.07;;;8.77;;
71435;SDS011;59251;51.326;12.370;2023-08-24T03:51:14;13.18;;;8.73;;
71435;SDS011;59251;51.326;12.370;2023-08-24T03:53:41;15.13;;;9.13;;
71435;SDS011;59251;51.326;12.370;2023-08-24T03:56:07;14.13;;;9.27;;
71435;SDS011;59251;51.326;12.370;2023-08-24T03:58:35;16.45;;;9.73;;
71435;SDS011;59251;51.326;12.370;2023-08-24T04:01:03;14.07;;;9.17;;
71435;SDS011;59251;51.326;12.370;2023-08-24T04:03:32;15.70;;;9.82;;
71435;SDS011;59251;51.326;12.370;2023-08-24T04:05:59;16.15;;;9.48;;
71435;SDS011;59251;51.326;12.370;2023-08-24T04:08:28;13.85;;;8.55;;
71435;SDS011;59251;51.326;12.370;2023-08-24T04:10:55;17.63;;;8.93;;
71435;SDS011;59251;51.326;12.370;2023-08-24T04:13:23;14.67;;;10.07;;
71435;SDS011;59251;51.326;12.370;2023-08-24T04:15:50;16.05;;;10.23;;
71435;SDS011;59251;51.326;12.370;2023-08-24T04:18:18;14.38;;;9.30;;
71435;SDS011;59251;51.326;12.370;2023-08-24T04:20:44;15.27;;;9.65;;
71435;SDS011;59251;51.326;12.370;2023-08-24T04:23:12;19.25;;;10.43;;
71435;SDS011;59251;51.326;12.370;2023-08-24T04:25:39;16.63;;;10.17;;
71435;SDS011;59251;51.326;12.370;2023-08-24T04:28:06;15.63;;;10.30;;
71435;SDS011;59251;51.326;12.370;2023-08-24T04:30:33;14.15;;;10.13;;
71435;SDS011;59251;51.326;12.370;2023-08-24T04:32:59;14.35;;;9.90;;
71435;SDS011;59251;51.326;12.370;2023-08-24T04:35:29;15.73;;;9.55;;
71435;SDS011;59251;51.326;12.370;2023-08-24T04:38:00;16.40;;;9.50;;
71435;SDS011;59251;51.326;12.370;2023-08-24T04:40:26;14.93;;;10.13;;
71435;SDS011;59251;51.326;12.370;2023-08-24T04:42:53;18.08;;;10.40;;
71435;SDS011;59251;51.326;12.370;2023-08-24T04:45:20;25.52;;;11.70;;
71435;SDS011;59251;51.326;12.370;2023-08-24T04:47:47;19.05;;;12.07;;
71435;SDS011;59251;51.326;12.370;2023-08-24T04:50:13;16.57;;;10.13;;
71435;SDS011;59251;51.326;12.370;2023-08-24T04:52:42;21.08;;;12.20;;
71435;SDS011;59251;51.326;12.370;2023-08-24T04:55:08;19.17;;;12.07;;
71435;SDS011;59251;51.326;12.370;2023-08-24T04:57:35;15.38;;;11.38;;
71435;SDS011;59251;51.326;12.370;2023-08-24T05:00:02;18.10;;;11.57;;
71435;SDS011;59251;51.326;12.370;2023-08-24T05:02:30;17.20;;;12.23;;
71435;SDS011;59251;51.326;12.370;2023-08-24T05:04:57;15.88;;;11.10;;
71435;SDS011;59251;51.326;12.370;2023-08-24T05:07:24;16.65;;;10.35;;
71435;SDS011;59251;51.326;12.370;2023-08-24T05:09:52;15.88;;;10.57;;
71435;SDS011;59251;51.326;12.370;2023-08-24T05:12:20;16.27;;;9.85;;
71435;SDS011;59251;51.326;12.370;2023-08-24T05:14:46;15.33;;;10.67;;
71435;SDS011;59251;51.326;12.370;2023-08-24T05:17:13;14.30;;;9.25;;
71435;SDS011;59251;51.326;12.370;2023-08-24T05:19:40;16.30;;;9.95;;
71435;SDS011;59251;51.326;12.370;2023-08-24T05:22:06;15.27;;;9.55;;
71435;SDS011;59251;51.326;12.370;2023-08-24T05:24:33;17.73;;;10.13;;
71435;SDS011;59251;51.326;12.370;2023-08-24T05:27:01;13.50;;;8.60;;
71435;SDS011;59251;51.326;12.370;2023-08-24T05:29:28;16.55;;;9.05;;
71435;SDS011;59251;51.326;12.370;2023-08-24T05:31:55;14.45;;;8.18;;
71435;SDS011;59251;51.326;12.370;2023-08-24T05:34:21;14.82;;;8.43;;
71435;SDS011;59251;51.326;12.370;2023-08-24T05:36:48;13.32;;;8.00;;
71435;SDS011;59251;51.326;12.370;2023-08-24T05:39:15;12.97;;;7.20;;
71435;SDS011;59251;51.326;12.370;2023-08-24T05:41:41;13.90;;;7.45;;
71435;SDS011;59251;51.326;12.370;2023-08-24T05:44:10;11.98;;;7.30;;
71435;SDS011;59251;51.326;12.370;2023-08-24T05:46:36;14.80;;;7.40;;
71435;SDS011;59251;51.326;12.370;2023-08-24T05:49:03;14.23;;;7.63;;
71435;SDS011;59251;51.326;12.370;2023-08-24T05:51:30;13.27;;;7.80;;
71435;SDS011;59251;51.326;12.370;2023-08-24T05:53:56;18.40;;;7.93;;
71435;SDS011;59251;51.326;12.370;2023-08-24T05:56:23;14.60;;;7.00;;
71435;SDS011;59251;51.326;12.370;2023-08-24T05:58:50;18.92;;;7.93;;
71435;SDS011;59251;51.326;12.370;2023-08-24T06:01:18;11.82;;;7.20;;
71435;SDS011;59251;51.326;12.370;2023-08-24T06:03:45;12.57;;;6.67;;
71435;SDS011;59251;51.326;12.370;2023-08-24T06:06:12;11.05;;;7.30;;
71435;SDS011;59251;51.326;12.370;2023-08-24T06:08:38;16.92;;;8.18;;
71435;SDS011;59251;51.326;12.370;2023-08-24T06:11:05;11.48;;;7.35;;
71435;SDS011;59251;51.326;12.370;2023-08-24T06:13:32;12.90;;;7.28;;
71435;SDS011;59251;51.326;12.370;2023-08-24T06:15:59;12.30;;;7.60;;
71435;SDS011;59251;51.326;12.370;2023-08-24T06:18:27;14.90;;;7.72;;
71435;SDS011;59251;51.326;12.370;2023-08-24T06:20:54;12.68;;;7.72;;
71435;SDS011;59251;51.326;12.370;2023-08-24T06:23:21;14.00;;;7.30;;
71435;SDS011;59251;51.326;12.370;2023-08-24T06:25:47;14.57;;;7.78;;
71435;SDS011;59251;51.326;12.370;2023-08-24T06:28:14;14.97;;;7.20;;
71435;SDS011;59251;51.326;12.370;2023-08-24T06:30:41;12.45;;;7.00;;
71435;SDS011;59251;51.326;12.370;2023-08-24T06:33:10;12.95;;;7.43;;
71435;SDS011;59251;51.326;12.370;2023-08-24T06:35:38;12.43;;;6.75;;
71435;SDS011;59251;51.326;12.370;2023-08-24T06:38:05;12.57;;;7.18;;
71435;SDS011;59251;51.326;12.370;2023-08-24T06:40:31;11.17;;;6.43;;
71435;SDS011;59251;51.326;12.370;2023-08-24T06:42:58;11.25;;;6.40;;
71435;SDS011;59251;51.326;12.370;2023-08-24T06:45:25;11.57;;;6.97;;
71435;SDS011;59251;51.326;12.370;2023-08-24T06:47:52;16.15;;;6.78;;
71435;SDS011;59251;51.326;12.370;2023-08-24T06:50:19;12.70;;;6.80;;
71435;SDS011;59251;51.326;12.370;2023-08-24T06:52:47;12.43;;;5.63;;
71435;SDS011;59251;51.326;12.370;2023-08-24T06:55:14;13.38;;;6.43;;
71435;SDS011;59251;51.326;12.370;2023-08-24T06:57:41;16.00;;;5.82;;
71435;SDS011;59251;51.326;12.370;2023-08-24T07:00:08;10.38;;;6.00;;
71435;SDS011;59251;51.326;12.370;2023-08-24T07:02:38;15.65;;;6.40;;
71435;SDS011;59251;51.326;12.370;2023-08-24T07:05:05;11.87;;;6.23;;
71435;SDS011;59251;51.326;12.370;2023-08-24T07:07:33;12.95;;;6.18;;
71435;SDS011;59251;51.326;12.370;2023-08-24T07:10:02;11.63;;;6.35;;
71435;SDS011;59251;51.326;12.370;2023-08-24T07:12:29;15.15;;;6.03;;
71435;SDS011;59251;51.326;12.370;2023-08-24T07:14:56;11.18;;;5.70;;
71435;SDS011;59251;51.326;12.370;2023-08-24T07:17:23;11.20;;;5.33;;
71435;SDS011;59251;51.326;12.370;2023-08-24T07:19:50;12.40;;;5.30;;
71435;SDS011;59251;51.326;12.370;2023-08-24T07:22:16;11.43;;;5.03;;
71435;SDS011;59251;51.326;12.370;2023-08-24T07:24:44;9.02;;;4.15;;
71435;SDS011;59251;51.326;12.370;2023-08-24T07:27:12;8.75;;;4.38;;
71435;SDS011;59251;51.326;12.370;2023-08-24T07:29:39;8.60;;;4.07;;
71435;SDS011;59251;51.326;12.370;2023-08-24T07:32:07;10.90;;;4.30;;
71435;SDS011;59251;51.326;12.370;2023-08-24T07:34:34;11.57;;;4.70;;
71435;SDS011;59251;51.326;12.370;2023-08-24T07:37:00;10.50;;;4.70;;
71435;SDS011;59251;51.326;12.370;2023-08-24T07:39:27;9.65;;;3.97;;
71435;SDS011;59251;51.326;12.370;2023-08-24T07:41:54;8.83;;;3.80;;
71435;SDS011;59251;51.326;12.370;2023-08-24T07:44:22;10.55;;;4.53;;
71435;SDS011;59251;51.326;12.370;2023-08-24T07:46:49;8.98;;;4.53;;
71435;SDS011;59251;51.326;12.370;2023-08-24T07:49:16;8.88;;;3.85;;
71435;SDS011;59251;51.326;12.370;2023-08-24T07:51:43;10.48;;;4.30;;
71435;SDS011;59251;51.326;12.370;2023-08-24T07:54:09;10.03;;;4.17;;
71435;SDS011;59251;51.326;12.370;2023-08-24T07:56:36;7.88;;;3.63;;
71435;SDS011;59251;51.326;12.370;2023-08-24T07:59:03;9.05;;;3.33;;
71435;SDS011;59251;51.326;12.370;2023-08-24T08:01:31;7.55;;;3.20;;
71435;SDS011;59251;51.326;12.370;2023-08-24T08:03:58;11.73;;;3.78;;
71435;SDS011;59251;51.326;12.370;2023-08-24T08:06:25;10.10;;;3.50;;
71435;SDS011;59251;51.326;12.370;2023-08-24T08:08:52;8.18;;;3.30;;
71435;SDS011;59251;51.326;12.370;2023-08-24T08:11:19;9.18;;;3.45;;
71435;SDS011;59251;51.326;12.370;2023-08-24T08:13:46;7.95;;;3.13;;
71435;SDS011;59251;51.326;12.370;2023-08-24T08:16:13;11.13;;;3.40;;
71435;SDS011;59251;51.326;12.370;2023-08-24T08:18:41;9.80;;;3.73;;
71435;SDS011;59251;51.326;12.370;2023-08-24T08:21:08;7.00;;;3.20;;
71435;SDS011;59251;51.326;12.370;2023-08-24T08:23:35;6.80;;;3.30;;
71435;SDS011;59251;51.326;12.370;2023-08-24T08:26:02;7.50;;;3.20;;
71435;SDS011;59251;51.326;12.370;2023-08-24T08:28:29;8.32;;;3.92;;
71435;SDS011;59251;51.326;12.370;2023-08-24T08:30:58;8.33;;;3.60;;
71435;SDS011;59251;51.326;12.370;2023-08-24T08:33:25;11.10;;;3.55;;
71435;SDS011;59251;51.326;12.370;2023-08-24T08:35:53;9.00;;;3.95;;
71435;SDS011;59251;51.326;12.370;2023-08-24T08:38:20;8.63;;;3.47;;
71435;SDS011;59251;51.326;12.370;2023-08-24T08:40:51;10.32;;;3.17;;
71435;SDS011;59251;51.326;12.370;2023-08-24T08:43:19;10.43;;;3.23;;
71435;SDS011;59251;51.326;12.370;2023-08-24T08:45:49;7.60;;;3.30;;
71435;SDS011;59251;51.326;12.370;2023-08-24T08:48:16;12.30;;;3.20;;
71435;SDS011;59251;51.326;12.370;2023-08-24T08:50:43;9.75;;;3.00;;
71435;SDS011;59251;51.326;12.370;2023-08-24T08:53:11;8.20;;;3.15;;
71435;SDS011;59251;51.326;12.370;2023-08-24T08:55:37;7.90;;;2.97;;
71435;SDS011;59251;51.326;12.370;2023-08-24T08:58:05;9.02;;;3.20;;
71435;SDS011;59251;51.326;12.370;2023-08-24T09:00:32;9.23;;;3.17;;
71435;SDS011;59251;51.326;12.370;2023-08-24T09:02:59;9.27;;;2.80;;
71435;SDS011;59251;51.326;12.370;2023-08-24T09:05:28;7.30;;;2.70;;
71435;SDS011;59251;51.326;12.370;2023-08-24T09:07:55;9.23;;;3.17;;
71435;SDS011;59251;51.326;12.370;2023-08-24T09:10:26;9.80;;;3.28;;
71435;SDS011;59251;51.326;12.370;2023-08-24T09:12:52;8.32;;;2.95;;
71435;SDS011;59251;51.326;12.370;2023-08-24T09:15:26;6.72;;;3.00;;
71435;SDS011;59251;51.326;12.370;2023-08-24T09:17:53;9.88;;;3.35;;
71435;SDS011;59251;51.326;12.370;2023-08-24T09:20:21;9.80;;;3.40;;
71435;SDS011;59251;51.326;12.370;2023-08-24T09:22:48;8.45;;;3.20;;
71435;SDS011;59251;51.326;12.370;2023-08-24T09:25:16;8.25;;;3.60;;
71435;SDS011;59251;51.326;12.370;2023-08-24T09:27:44;10.52;;;3.30;;
71435;SDS011;59251;51.326;12.370;2023-08-24T09:30:11;8.98;;;3.20;;
71435;SDS011;59251;51.326;12.370;2023-08-24T09:32:38;6.80;;;3.00;;
71435;SDS011;59251;51.326;12.370;2023-08-24T09:35:07;8.05;;;3.53;;
71435;SDS011;59251;51.326;12.370;2023-08-24T09:37:35;7.78;;;3.35;;
71435;SDS011;59251;51.326;12.370;2023-08-24T09:40:04;8.98;;;3.55;;
71435;SDS011;59251;51.326;12.370;2023-08-24T09:42:37;10.10;;;3.45;;
71435;SDS011;59251;51.326;12.370;2023-08-24T09:45:06;7.40;;;3.27;;
71435;SDS011;59251;51.326;12.370;2023-08-24T09:47:37;10.90;;;3.53;;
71435;SDS011;59251;51.326;12.370;2023-08-24T09:50:04;9.05;;;3.40;;
71435;SDS011;59251;51.326;12.370;2023-08-24T09:52:33;7.60;;;3.20;;
71435;SDS011;59251;51.326;12.370;2023-08-24T09:55:02;8.80;;;3.28;;
71435;SDS011;59251;51.326;12.370;2023-08-24T09:57:31;11.70;;;3.77;;
71435;SDS011;59251;51.326;12.370;2023-08-24T10:00:03;11.07;;;3.88;;
71435;SDS011;59251;51.326;12.370;2023-08-24T10:02:36;9.80;;;3.78;;
71435;SDS011;59251;51.326;12.370;2023-08-24T10:05:08;9.55;;;3.40;;
71435;SDS011;59251;51.326;12.370;2023-08-24T10:07:36;13.90;;;4.13;;
71435;SDS011;59251;51.326;12.370;2023-08-24T10:10:05;12.70;;;3.57;;
71435;SDS011;59251;51.326;12.370;2023-08-24T10:12:39;8.63;;;3.60;;
71435;SDS011;59251;51.326;12.370;2023-08-24T10:15:11;8.63;;;3.65;;
71435;SDS011;59251;51.326;12.370;2023-08-24T10:17:38;7.32;;;3.17;;
71435;SDS011;59251;51.326;12.370;2023-08-24T10:20:06;9.38;;;3.58;;
71435;SDS011;59251;51.326;12.370;2023-08-24T10:22:34;12.33;;;3.77;;
71435;SDS011;59251;51.326;12.370;2023-08-24T10:25:02;12.63;;;3.70;;
71435;SDS011;59251;51.326;12.370;2023-08-24T10:27:30;10.02;;;3.28;;
71435;SDS011;59251;51.326;12.370;2023-08-24T10:29:56;8.30;;;3.85;;
71435;SDS011;59251;51.326;12.370;2023-08-24T10:32:25;9.80;;;3.50;;
71435;SDS011;59251;51.326;12.370;2023-08-24T10:34:53;11.20;;;4.10;;
71435;SDS011;59251;51.326;12.370;2023-08-24T10:37:24;9.15;;;3.28;;
71435;SDS011;59251;51.326;12.370;2023-08-24T10:39:52;9.82;;;3.70;;
71435;SDS011;59251;51.326;12.370;2023-08-24T10:42:18;10.75;;;3.60;;
71435;SDS011;59251;51.326;12.370;2023-08-24T10:44:47;10.13;;;3.58;;
71435;SDS011;59251;51.326;12.370;2023-08-24T10:47:15;9.53;;;3.60;;
71435;SDS011;59251;51.326;12.370;2023-08-24T10:49:57;8.65;;;3.63;;
71435;SDS011;59251;51.326;12.370;2023-08-24T10:52:25;9.30;;;3.13;;
71435;SDS011;59251;51.326;12.370;2023-08-24T10:54:56;9.48;;;3.42;;
71435;SDS011;59251;51.326;12.370;2023-08-24T10:57:23;10.13;;;3.67;;
71435;SDS011;59251;51.326;12.370;2023-08-24T11:00:06;14.33;;;3.67;;
71435;SDS011;59251;51.326;12.370;2023-08-24T11:02:41;8.43;;;3.47;;
71435;SDS011;59251;51.326;12.370;2023-08-24T11:05:17;7.97;;;3.60;;
71435;SDS011;59251;51.326;12.370;2023-08-24T11:07:53;7.28;;;3.50;;
71435;SDS011;59251;51.326;12.370;2023-08-24T11:10:21;10.15;;;3.72;;
71435;SDS011;59251;51.326;12.370;2023-08-24T11:13:04;9.63;;;3.90;;
71435;SDS011;59251;51.326;12.370;2023-08-24T11:15:39;9.20;;;3.60;;
71435;SDS011;59251;51.326;12.370;2023-08-24T11:18:11;13.68;;;3.92;;
71435;SDS011;59251;51.326;12.370;2023-08-24T11:20:41;8.35;;;3.90;;
71435;SDS011;59251;51.326;12.370;2023-08-24T11:23:09;9.43;;;3.95;;
71435;SDS011;59251;51.326;12.370;2023-08-24T11:25:36;8.97;;;3.57;;
71435;SDS011;59251;51.326;12.370;2023-08-24T11:28:03;8.93;;;3.90;;
71435;SDS011;59251;51.326;12.370;2023-08-24T11:30:30;7.20;;;3.63;;
71435;SDS011;59251;51.326;12.370;2023-08-24T11:32:57;9.98;;;3.92;;
71435;SDS011;59251;51.326;12.370;2023-08-24T11:35:24;11.32;;;3.85;;
71435;SDS011;59251;51.326;12.370;2023-08-24T11:37:53;6.87;;;3.40;;
71435;SDS011;59251;51.326;12.370;2023-08-24T11:40:20;11.65;;;3.95;;
71435;SDS011;59251;51.326;12.370;2023-08-24T11:42:53;6.78;;;3.70;;
71435;SDS011;59251;51.326;12.370;2023-08-24T11:45:20;10.32;;;3.95;;
71435;SDS011;59251;51.326;12.370;2023-08-24T11:47:47;9.77;;;3.90;;
71435;SDS011;59251;51.326;12.370;2023-08-24T11:50:14;8.70;;;3.80;;
71435;SDS011;59251;51.326;12.370;2023-08-24T11:52:41;9.65;;;3.85;;
71435;SDS011;59251;51.326;12.370;2023-08-24T11:55:10;9.48;;;3.60;;
71435;SDS011;59251;51.326;12.370;2023-08-24T11:57:37;12.73;;;4.63;;
71435;SDS011;59251;51.326;12.370;2023-08-24T12:00:05;10.35;;;4.53;;
71435;SDS011;59251;51.326;12.370;2023-08-24T12:02:34;11.00;;;4.20;;
71435;SDS011;59251;51.326;12.370;2023-08-24T12:05:01;9.02;;;4.20;;
71435;SDS011;59251;51.326;12.370;2023-08-24T12:07:32;11.02;;;4.55;;
71435;SDS011;59251;51.326;12.370;2023-08-24T12:09:59;10.05;;;3.90;;
71435;SDS011;59251;51.326;12.370;2023-08-24T12:12:28;9.85;;;3.65;;
71435;SDS011;59251;51.326;12.370;2023-08-24T12:14:55;6.80;;;3.30;;
71435;SDS011;59251;51.326;12.370;2023-08-24T12:17:22;10.02;;;3.97;;
71435;SDS011;59251;51.326;12.370;2023-08-24T12:19:56;9.70;;;4.40;;
71435;SDS011;59251;51.326;12.370;2023-08-24T12:22:23;8.80;;;4.22;;
71435;SDS011;59251;51.326;12.370;2023-08-24T12:24:50;9.95;;;4.53;;
71435;SDS011;59251;51.326;12.370;2023-08-24T12:27:17;8.40;;;3.97;;
71435;SDS011;59251;51.326;12.370;2023-08-24T12:29:46;9.07;;;3.88;;
71435;SDS011;59251;51.326;12.370;2023-08-24T12:32:13;10.13;;;4.22;;
71435;SDS011;59251;51.326;12.370;2023-08-24T12:34:41;14.05;;;4.15;;
71435;SDS011;59251;51.326;12.370;2023-08-24T12:37:08;11.43;;;4.25;;
71435;SDS011;59251;51.326;12.370;2023-08-24T12:39:35;8.17;;;4.00;;
71435;SDS011;59251;51.326;12.370;2023-08-24T12:42:02;7.97;;;4.35;;
71435;SDS011;59251;51.326;12.370;2023-08-24T12:44:29;9.23;;;4.20;;
71435;SDS011;59251;51.326;12.370;2023-08-24T12:46:58;9.02;;;4.15;;
71435;SDS011;59251;51.326;12.370;2023-08-24T12:49:25;11.25;;;4.70;;
71435;SDS011;59251;51.326;12.370;2023-08-24T12:51:52;7.90;;;4.33;;
71435;SDS011;59251;51.326;12.370;2023-08-24T12:54:19;8.98;;;4.10;;
71435;SDS011;59251;51.326;12.370;2023-08-24T12:56:45;8.48;;;4.35;;
71435;SDS011;59251;51.326;12.370;2023-08-24T12:59:12;11.32;;;4.75;;
71435;SDS011;59251;51.326;12.370;2023-08-24T13:01:39;7.78;;;5.10;;
71435;SDS011;59251;51.326;12.370;2023-08-24T13:04:07;8.90;;;4.27;;
71435;SDS011;59251;51.326;12.370;2023-08-24T13:06:34;10.00;;;4.50;;
71435;SDS011;59251;51.326;12.370;2023-08-24T13:09:01;7.50;;;4.30;;
71435;SDS011;59251;51.326;12.370;2023-08-24T13:11:28;9.68;;;4.13;;
71435;SDS011;59251;51.326;12.370;2023-08-24T13:13:55;18.95;;;4.95;;
71435;SDS011;59251;51.326;12.370;2023-08-24T13:16:21;8.30;;;3.90;;
71435;SDS011;59251;51.326;12.370;2023-08-24T13:18:48;12.82;;;4.80;;
71435;SDS011;59251;51.326;12.370;2023-08-24T13:21:16;9.63;;;4.10;;
71435;SDS011;59251;51.326;12.370;2023-08-24T13:23:43;11.57;;;4.00;;
71435;SDS011;59251;51.326;12.370;2023-08-24T13:26:16;8.15;;;4.22;;
71435;SDS011;59251;51.326;12.370;2023-08-24T13:28:44;9.50;;;3.77;;
71435;SDS011;59251;51.326;12.370;2023-08-24T13:31:11;11.20;;;4.50;;
71435;SDS011;59251;51.326;12.370;2023-08-24T13:33:38;10.00;;;4.38;;
71435;SDS011;59251;51.326;12.370;2023-08-24T13:36:04;8.82;;;4.50;;
71435;SDS011;59251;51.326;12.370;2023-08-24T13:38:33;11.40;;;4.53;;
71435;SDS011;59251;51.326;12.370;2023-08-24T13:41:00;9.23;;;4.80;;
71435;SDS011;59251;51.326;12.370;2023-08-24T13:43:26;10.45;;;4.53;;
71435;SDS011;59251;51.326;12.370;2023-08-24T13:45:53;9.13;;;5.32;;
71435;SDS011;59251;51.326;12.370;2023-08-24T13:48:20;14.18;;;5.10;;
71435;SDS011;59251;51.326;12.370;2023-08-24T13:50:49;11.35;;;4.65;;
71435;SDS011;59251;51.326;12.370;2023-08-24T13:53:17;10.90;;;4.80;;
71435;SDS011;59251;51.326;12.370;2023-08-24T13:55:45;8.13;;;4.45;;
71435;SDS011;59251;51.326;12.370;2023-08-24T13:58:12;8.80;;;4.32;;
71435;SDS011;59251;51.326;12.370;2023-08-24T14:00:38;12.93;;;5.10;;
71435;SDS011;59251;51.326;12.370;2023-08-24T14:03:05;8.27;;;4.63;;
71435;SDS011;59251;51.326;12.370;2023-08-24T14:05:33;13.13;;;4.83;;
71435;SDS011;59251;51.326;12.370;2023-08-24T14:08:04;11.25;;;4.97;;
71435;SDS011;59251;51.326;12.370;2023-08-24T14:10:33;10.45;;;5.20;;
71435;SDS011;59251;51.326;12.370;2023-08-24T14:13:01;9.63;;;4.75;;
71435;SDS011;59251;51.326;12.370;2023-08-24T14:15:28;10.40;;;4.85;;
71435;SDS011;59251;51.326;12.370;2023-08-24T14:17:55;8.00;;;4.20;;
71435;SDS011;59251;51.326;12.370;2023-08-24T14:20:21;10.48;;;4.28;;
71435;SDS011;59251;51.326;12.370;2023-08-24T14:22:48;8.93;;;4.38;;
71435;SDS011;59251;51.326;12.370;2023-08-24T14:25:15;9.38;;;4.10;;
71435;SDS011;59251;51.326;12.370;2023-08-24T14:27:42;9.18;;;4.38;;